SIA306 EGLL-KJFK
Flight info
| Callsign | SIA306 |
|---|---|
| Flight time | N/A |
| Altitude | 34000 |
| Route | ULTIB T420 TNT UL28 PENIL M144 BAGSO DCT RINUS DCT MALOT/M083F350 DCT 54N020W 54N030W 54N040W 53N050W DCT RIKAL/N0476F360 N572A TOPPS DCT ENE PARCH4 |
| Aircraft | B77W/H-SDE1E2E3FGHIJ2J3J4J5M1RWXY/LB1D1 |
Departure
| Time | 2026-05-05 05:03 |
|---|---|
| Airport | London Heathrow Airport (EGLL) |
Arrival
| Time | N/A |
|---|---|
| Airport | John F. Kennedy International Airport (KJFK) |
| Time | Latitude | Longitude | Altitude | Speed | Heading |
|---|---|---|---|---|---|
| 2026-05-05 04:42 | 51.46867 | -0.44189 | 93 ft | 0 kts | 269° |
| 2026-05-05 04:42 | 51.46867 | -0.44196 | 95 ft | 0 kts | 270° |
| 2026-05-05 04:48 | 51.46867 | -0.44158 | 93 ft | 4 kts | 270° |
| 2026-05-05 04:49 | 51.46867 | -0.44118 | 91 ft | 2 kts | 270° |
| 2026-05-05 04:49 | 51.46870 | -0.44082 | 91 ft | 4 kts | 244° |
| 2026-05-05 04:49 | 51.46886 | -0.44057 | 94 ft | 4 kts | 188° |
| 2026-05-05 04:49 | 51.46911 | -0.44055 | 93 ft | 4 kts | 180° |
| 2026-05-05 04:50 | 51.46928 | -0.44055 | 92 ft | 0 kts | 180° |
| 2026-05-05 04:52 | 51.46886 | -0.44056 | 94 ft | 8 kts | 180° |
| 2026-05-05 04:52 | 51.46855 | -0.44055 | 94 ft | 4 kts | 179° |
| 2026-05-05 04:52 | 51.46830 | -0.44055 | 94 ft | 4 kts | 179° |
| 2026-05-05 04:52 | 51.46805 | -0.44054 | 94 ft | 4 kts | 179° |
| 2026-05-05 04:53 | 51.46782 | -0.44037 | 94 ft | 4 kts | 135° |
| 2026-05-05 04:53 | 51.46772 | -0.43996 | 91 ft | 4 kts | 102° |
| 2026-05-05 04:53 | 51.46770 | -0.43951 | 91 ft | 4 kts | 92° |
| 2026-05-05 04:53 | 51.46770 | -0.43906 | 92 ft | 4 kts | 90° |
| 2026-05-05 04:54 | 51.46770 | -0.43861 | 94 ft | 4 kts | 90° |
| 2026-05-05 04:54 | 51.46770 | -0.43815 | 94 ft | 4 kts | 90° |
| 2026-05-05 04:54 | 51.46770 | -0.43770 | 94 ft | 4 kts | 90° |
| 2026-05-05 04:54 | 51.46770 | -0.43724 | 94 ft | 4 kts | 89° |
| 2026-05-05 04:55 | 51.46771 | -0.43678 | 94 ft | 4 kts | 89° |
| 2026-05-05 04:55 | 51.46771 | -0.43633 | 94 ft | 4 kts | 89° |
| 2026-05-05 04:55 | 51.46772 | -0.43587 | 94 ft | 4 kts | 89° |
| 2026-05-05 04:55 | 51.46773 | -0.43542 | 94 ft | 4 kts | 89° |
| 2026-05-05 04:56 | 51.46770 | -0.43496 | 94 ft | 4 kts | 106° |
| 2026-05-05 04:56 | 51.46752 | -0.43462 | 95 ft | 4 kts | 145° |
| 2026-05-05 04:56 | 51.46724 | -0.43448 | 94 ft | 4 kts | 168° |
| 2026-05-05 04:56 | 51.46696 | -0.43441 | 95 ft | 4 kts | 173° |
| 2026-05-05 04:57 | 51.46667 | -0.43438 | 95 ft | 4 kts | 178° |
| 2026-05-05 04:57 | 51.46659 | -0.43437 | 94 ft | 0 kts | 179° |
| 2026-05-05 05:00 | 51.46643 | -0.43437 | 95 ft | 11 kts | 179° |
| 2026-05-05 05:00 | 51.46554 | -0.43434 | 95 ft | 7 kts | 179° |
| 2026-05-05 05:01 | 51.46514 | -0.43442 | 94 ft | 6 kts | 207° |
| 2026-05-05 05:01 | 51.46498 | -0.43506 | 94 ft | 7 kts | 263° |
| 2026-05-05 05:01 | 51.46498 | -0.43513 | 93 ft | 0 kts | 264° |
| 2026-05-05 05:02 | 51.46495 | -0.43625 | 91 ft | 36 kts | 269° |
| 2026-05-05 05:02 | 51.46492 | -0.44422 | 92 ft | 107 kts | 270° |
| 2026-05-05 05:02 | 51.46487 | -0.45927 | 94 ft | 164 kts | 270° |
| 2026-05-05 05:03 | 51.46487 | -0.47241 | 113 ft | 192 kts | 270° |
| 2026-05-05 05:03 | 51.46465 | -0.50079 | 887 ft | 193 kts | 275° |
| 2026-05-05 05:03 | 51.46857 | -0.52083 | 1413 ft | 191 kts | 303° |
| 2026-05-05 05:03 | 51.47504 | -0.53964 | 1914 ft | 201 kts | 301° |
| 2026-05-05 05:04 | 51.47949 | -0.55330 | 2035 ft | 217 kts | 301° |
| 2026-05-05 05:04 | 51.48672 | -0.57569 | 2225 ft | 242 kts | 301° |
| 2026-05-05 05:04 | 51.49449 | -0.60000 | 2831 ft | 250 kts | 300° |
| 2026-05-05 05:04 | 51.50243 | -0.62492 | 3542 ft | 254 kts | 300° |
| 2026-05-05 05:05 | 51.51047 | -0.65014 | 4292 ft | 255 kts | 300° |
| 2026-05-05 05:05 | 51.52128 | -0.67203 | 4871 ft | 257 kts | 327° |
| 2026-05-05 05:05 | 51.53759 | -0.68295 | 5512 ft | 259 kts | 348° |
| 2026-05-05 05:05 | 51.55551 | -0.68552 | 5991 ft | 264 kts | 358° |
| 2026-05-05 05:06 | 51.57393 | -0.68567 | 5988 ft | 267 kts | 359° |
| 2026-05-05 05:06 | 51.59240 | -0.68566 | 6078 ft | 267 kts | 357° |
| 2026-05-05 05:06 | 51.61075 | -0.68729 | 6732 ft | 267 kts | 355° |
| 2026-05-05 05:06 | 51.62929 | -0.68939 | 7365 ft | 271 kts | 355° |
| 2026-05-05 05:07 | 51.64821 | -0.69154 | 8012 ft | 275 kts | 355° |
| 2026-05-05 05:07 | 51.66737 | -0.69369 | 8661 ft | 279 kts | 355° |
| 2026-05-05 05:07 | 51.68685 | -0.69567 | 9301 ft | 283 kts | 356° |
| 2026-05-05 05:07 | 51.70659 | -0.69740 | 9950 ft | 287 kts | 356° |
| 2026-05-05 05:08 | 51.72628 | -0.69907 | 10398 ft | 298 kts | 356° |
| 2026-05-05 05:08 | 51.74826 | -0.70094 | 10561 ft | 321 kts | 356° |
| 2026-05-05 05:08 | 51.77134 | -0.70291 | 10742 ft | 343 kts | 356° |
| 2026-05-05 05:08 | 51.79593 | -0.70503 | 10969 ft | 363 kts | 356° |
| 2026-05-05 05:09 | 51.82155 | -0.70723 | 11534 ft | 373 kts | 356° |
| 2026-05-05 05:09 | 51.84775 | -0.70949 | 12275 ft | 380 kts | 356° |
| 2026-05-05 05:09 | 51.87431 | -0.71180 | 13159 ft | 384 kts | 356° |
| 2026-05-05 05:09 | 51.90120 | -0.71413 | 13992 ft | 389 kts | 356° |
| 2026-05-05 05:10 | 51.92840 | -0.71650 | 14719 ft | 395 kts | 356° |
| 2026-05-05 05:10 | 51.95607 | -0.71892 | 15435 ft | 401 kts | 356° |
| 2026-05-05 05:10 | 51.98410 | -0.72137 | 16182 ft | 406 kts | 356° |
| 2026-05-05 05:10 | 52.01247 | -0.72385 | 16921 ft | 411 kts | 356° |
| 2026-05-05 05:11 | 52.04125 | -0.72637 | 17647 ft | 417 kts | 357° |
| 2026-05-05 05:11 | 52.07037 | -0.72892 | 18355 ft | 422 kts | 356° |
| 2026-05-05 05:11 | 52.09967 | -0.73232 | 18964 ft | 426 kts | 352° |
| 2026-05-05 05:11 | 52.12848 | -0.74279 | 19576 ft | 429 kts | 341° |
| 2026-05-05 05:12 | 52.15623 | -0.76089 | 20242 ft | 432 kts | 332° |
| 2026-05-05 05:12 | 52.18213 | -0.78578 | 20913 ft | 434 kts | 326° |
| 2026-05-05 05:12 | 52.20768 | -0.81248 | 21555 ft | 438 kts | 326° |
| 2026-05-05 05:12 | 52.23369 | -0.83885 | 22177 ft | 442 kts | 327° |
| 2026-05-05 05:13 | 52.25998 | -0.86503 | 22790 ft | 446 kts | 327° |
| 2026-05-05 05:13 | 52.28664 | -0.89141 | 23417 ft | 449 kts | 327° |
| 2026-05-05 05:13 | 52.31341 | -0.91788 | 24063 ft | 450 kts | 327° |
| 2026-05-05 05:13 | 52.34007 | -0.94431 | 24592 ft | 453 kts | 327° |
| 2026-05-05 05:14 | 52.36672 | -0.97081 | 25045 ft | 457 kts | 327° |
| 2026-05-05 05:14 | 52.39399 | -0.99799 | 25504 ft | 461 kts | 327° |
| 2026-05-05 05:14 | 52.42153 | -1.02548 | 25891 ft | 466 kts | 327° |
| 2026-05-05 05:14 | 52.44934 | -1.05327 | 26361 ft | 469 kts | 327° |
| 2026-05-05 05:15 | 52.47727 | -1.08121 | 26845 ft | 472 kts | 327° |
| 2026-05-05 05:15 | 52.50530 | -1.10939 | 27314 ft | 474 kts | 327° |
| 2026-05-05 05:15 | 52.53347 | -1.13796 | 27766 ft | 477 kts | 327° |
| 2026-05-05 05:15 | 52.56180 | -1.16678 | 28177 ft | 480 kts | 327° |
| 2026-05-05 05:16 | 52.59030 | -1.19570 | 28569 ft | 483 kts | 327° |
| 2026-05-05 05:16 | 52.61895 | -1.22471 | 28956 ft | 486 kts | 328° |
| 2026-05-05 05:16 | 52.64768 | -1.25380 | 29339 ft | 488 kts | 328° |
| 2026-05-05 05:16 | 52.67653 | -1.28307 | 29829 ft | 487 kts | 328° |
| 2026-05-05 05:17 | 52.70528 | -1.31232 | 30328 ft | 485 kts | 328° |
| 2026-05-05 05:17 | 52.73399 | -1.34154 | 30812 ft | 483 kts | 328° |
| 2026-05-05 05:17 | 52.76255 | -1.37061 | 31243 ft | 482 kts | 329° |
| 2026-05-05 05:17 | 52.79100 | -1.39962 | 31757 ft | 479 kts | 329° |
| 2026-05-05 05:18 | 52.81927 | -1.42848 | 32226 ft | 477 kts | 329° |
| 2026-05-05 05:18 | 52.84746 | -1.45731 | 32604 ft | 477 kts | 329° |
| 2026-05-05 05:18 | 52.87548 | -1.48601 | 32963 ft | 477 kts | 329° |
| 2026-05-05 05:18 | 52.90366 | -1.51493 | 33318 ft | 476 kts | 329° |
| 2026-05-05 05:19 | 52.93158 | -1.54362 | 33717 ft | 474 kts | 329° |
| 2026-05-05 05:19 | 52.95960 | -1.57247 | 33987 ft | 476 kts | 329° |
| 2026-05-05 05:19 | 52.98767 | -1.60140 | 34026 ft | 478 kts | 329° |
| 2026-05-05 05:20 | 53.04392 | -1.65952 | 34017 ft | 472 kts | 329° |
| 2026-05-05 05:20 | 53.09934 | -1.71707 | 34024 ft | 469 kts | 329° |
| 2026-05-05 05:21 | 53.15467 | -1.77477 | 34029 ft | 470 kts | 329° |
| 2026-05-05 05:21 | 53.20950 | -1.83375 | 34024 ft | 470 kts | 322° |
| 2026-05-05 05:22 | 53.25354 | -1.91381 | 34053 ft | 472 kts | 303° |
| 2026-05-05 05:22 | 53.28354 | -2.01119 | 34053 ft | 472 kts | 295° |
| 2026-05-05 05:23 | 53.31201 | -2.11004 | 34048 ft | 472 kts | 296° |
| 2026-05-05 05:23 | 53.34113 | -2.20834 | 34049 ft | 471 kts | 296° |
| 2026-05-05 05:24 | 53.36688 | -2.30816 | 34044 ft | 471 kts | 288° |
| 2026-05-05 05:24 | 53.38641 | -2.41282 | 34046 ft | 470 kts | 287° |
| 2026-05-05 05:25 | 53.40583 | -2.51735 | 34047 ft | 470 kts | 288° |
| 2026-05-05 05:25 | 53.42554 | -2.62192 | 34048 ft | 470 kts | 288° |
| 2026-05-05 05:26 | 53.44523 | -2.72630 | 34047 ft | 469 kts | 288° |
| 2026-05-05 05:26 | 53.46480 | -2.83071 | 34038 ft | 469 kts | 288° |
| 2026-05-05 05:27 | 53.48425 | -2.93521 | 34036 ft | 469 kts | 287° |
| 2026-05-05 05:27 | 53.51296 | -3.09231 | 34040 ft | 469 kts | 287° |
| 2026-05-05 05:28 | 53.53184 | -3.19639 | 34048 ft | 468 kts | 287° |
| 2026-05-05 05:28 | 53.55079 | -3.30130 | 34044 ft | 468 kts | 287° |
| 2026-05-05 05:29 | 53.56967 | -3.40631 | 34046 ft | 468 kts | 287° |
| 2026-05-05 05:29 | 53.58853 | -3.51142 | 34044 ft | 468 kts | 288° |
| 2026-05-05 05:30 | 53.60746 | -3.61639 | 34049 ft | 468 kts | 287° |
| 2026-05-05 05:30 | 53.61956 | -3.72332 | 34051 ft | 469 kts | 274° |
| 2026-05-05 05:31 | 53.62342 | -3.83306 | 34058 ft | 469 kts | 274° |
| 2026-05-05 05:31 | 53.62785 | -3.94277 | 34054 ft | 470 kts | 275° |
| 2026-05-05 05:32 | 53.63230 | -4.05253 | 34056 ft | 470 kts | 274° |
| 2026-05-05 05:32 | 53.63650 | -4.16241 | 34054 ft | 470 kts | 274° |
| 2026-05-05 05:33 | 53.64058 | -4.27198 | 34061 ft | 469 kts | 274° |
| 2026-05-05 05:33 | 53.64453 | -4.38104 | 34045 ft | 468 kts | 274° |
| 2026-05-05 05:34 | 53.64833 | -4.49010 | 34055 ft | 466 kts | 274° |
| 2026-05-05 05:34 | 53.65206 | -4.59915 | 34062 ft | 465 kts | 274° |
| 2026-05-05 05:35 | 53.65567 | -4.70693 | 34058 ft | 464 kts | 273° |
| 2026-05-05 05:35 | 53.65922 | -4.81526 | 34057 ft | 462 kts | 273° |
| 2026-05-05 05:36 | 53.66276 | -4.92391 | 34056 ft | 461 kts | 273° |
| 2026-05-05 05:36 | 53.66632 | -5.03160 | 34067 ft | 460 kts | 273° |
| 2026-05-05 05:37 | 53.66977 | -5.13918 | 34067 ft | 460 kts | 273° |
| 2026-05-05 05:37 | 53.67295 | -5.24627 | 34067 ft | 460 kts | 273° |
| 2026-05-05 05:38 | 53.67600 | -5.35461 | 34067 ft | 460 kts | 273° |
| 2026-05-05 05:38 | 53.67897 | -5.46167 | 34069 ft | 460 kts | 272° |
| 2026-05-05 05:39 | 53.67996 | -5.56946 | 34068 ft | 460 kts | 269° |
| 2026-05-05 05:39 | 53.67881 | -5.67731 | 34068 ft | 460 kts | 269° |
| 2026-05-05 05:40 | 53.67753 | -5.78512 | 34069 ft | 460 kts | 269° |
| 2026-05-05 05:40 | 53.67631 | -5.89294 | 34067 ft | 460 kts | 269° |
| 2026-05-05 05:41 | 53.67508 | -6.00075 | 34070 ft | 460 kts | 269° |
| 2026-05-05 05:41 | 53.67377 | -6.10870 | 34067 ft | 460 kts | 269° |
| 2026-05-05 05:42 | 53.67236 | -6.21619 | 34069 ft | 460 kts | 269° |
| 2026-05-05 05:42 | 53.67085 | -6.32395 | 34062 ft | 459 kts | 269° |
| 2026-05-05 05:43 | 53.66924 | -6.43157 | 34067 ft | 459 kts | 269° |
| 2026-05-05 05:43 | 53.66753 | -6.53920 | 34066 ft | 459 kts | 268° |
| 2026-05-05 05:44 | 53.66574 | -6.64660 | 34072 ft | 459 kts | 268° |
| 2026-05-05 05:44 | 53.66384 | -6.75392 | 34071 ft | 459 kts | 268° |
| 2026-05-05 05:45 | 53.66187 | -6.86076 | 34078 ft | 458 kts | 268° |
| 2026-05-05 05:45 | 53.65978 | -6.96802 | 34075 ft | 458 kts | 268° |
| 2026-05-05 05:46 | 53.65760 | -7.07517 | 34077 ft | 457 kts | 268° |
| 2026-05-05 05:46 | 53.65533 | -7.18223 | 34082 ft | 457 kts | 268° |
| 2026-05-05 05:47 | 53.65297 | -7.28931 | 34085 ft | 457 kts | 268° |
| 2026-05-05 05:47 | 53.65051 | -7.39615 | 34084 ft | 456 kts | 268° |
| 2026-05-05 05:48 | 53.64796 | -7.50295 | 34089 ft | 455 kts | 267° |
| 2026-05-05 05:48 | 53.64534 | -7.60950 | 34089 ft | 455 kts | 267° |
| 2026-05-05 05:49 | 53.64203 | -7.71577 | 34094 ft | 454 kts | 265° |
| 2026-05-05 05:49 | 53.63584 | -7.82164 | 34093 ft | 454 kts | 264° |
| 2026-05-05 05:50 | 53.62911 | -7.92735 | 34103 ft | 453 kts | 264° |
| 2026-05-05 05:50 | 53.62260 | -8.03297 | 34106 ft | 453 kts | 264° |
| 2026-05-05 05:51 | 53.61624 | -8.13859 | 34103 ft | 453 kts | 264° |
| 2026-05-05 05:51 | 53.61094 | -8.22636 | 34105 ft | 453 kts | 264° |
| 2026-05-05 05:52 | 53.60343 | -8.34906 | 34115 ft | 453 kts | 264° |
| 2026-05-05 05:52 | 53.59685 | -8.45464 | 34104 ft | 454 kts | 264° |
| 2026-05-05 05:53 | 53.59126 | -8.54306 | 34115 ft | 454 kts | 264° |
| 2026-05-05 05:53 | 53.58454 | -8.64798 | 34114 ft | 454 kts | 263° |
| 2026-05-05 05:54 | 53.57769 | -8.75354 | 34109 ft | 454 kts | 263° |
| 2026-05-05 05:54 | 53.57075 | -8.85905 | 34108 ft | 454 kts | 264° |
| 2026-05-05 05:55 | 53.56371 | -8.96455 | 34120 ft | 454 kts | 264° |
| 2026-05-05 05:55 | 53.55657 | -9.07020 | 34120 ft | 455 kts | 263° |
| 2026-05-05 05:56 | 53.54932 | -9.17600 | 34118 ft | 455 kts | 263° |
| 2026-05-05 05:56 | 53.54198 | -9.28168 | 34113 ft | 456 kts | 263° |
| 2026-05-05 05:57 | 53.53453 | -9.38756 | 34116 ft | 456 kts | 264° |
| 2026-05-05 05:57 | 53.52699 | -9.49336 | 34122 ft | 457 kts | 264° |
| 2026-05-05 05:58 | 53.51934 | -9.59942 | 34121 ft | 457 kts | 263° |
| 2026-05-05 05:58 | 53.51160 | -9.70544 | 34123 ft | 457 kts | 263° |
| 2026-05-05 05:59 | 53.50376 | -9.81145 | 34124 ft | 458 kts | 263° |
| 2026-05-05 05:59 | 53.49580 | -9.91760 | 34112 ft | 458 kts | 264° |
| 2026-05-05 06:00 | 53.48777 | -10.02370 | 34127 ft | 458 kts | 264° |
| 2026-05-05 06:00 | 53.47962 | -10.12989 | 34127 ft | 459 kts | 264° |
| 2026-05-05 06:01 | 53.47136 | -10.23626 | 34126 ft | 460 kts | 263° |
| 2026-05-05 06:01 | 53.46300 | -10.34268 | 34125 ft | 460 kts | 263° |
| 2026-05-05 06:02 | 53.45460 | -10.44837 | 34123 ft | 460 kts | 263° |
| 2026-05-05 06:02 | 53.44600 | -10.55540 | 34129 ft | 460 kts | 263° |
| 2026-05-05 06:03 | 53.43741 | -10.66101 | 34130 ft | 460 kts | 263° |
| 2026-05-05 06:03 | 53.42867 | -10.76733 | 34131 ft | 460 kts | 263° |
| 2026-05-05 06:04 | 53.41984 | -10.87357 | 34130 ft | 460 kts | 263° |
| 2026-05-05 06:04 | 53.41091 | -10.97971 | 34130 ft | 460 kts | 263° |
| 2026-05-05 06:05 | 53.40190 | -11.08578 | 34131 ft | 460 kts | 263° |
| 2026-05-05 06:05 | 53.39278 | -11.19187 | 34136 ft | 460 kts | 263° |
| 2026-05-05 06:06 | 53.38358 | -11.29786 | 34136 ft | 460 kts | 263° |
| 2026-05-05 06:06 | 53.37429 | -11.40372 | 34133 ft | 460 kts | 263° |
| 2026-05-05 06:07 | 53.36490 | -11.50957 | 34139 ft | 459 kts | 263° |
| 2026-05-05 06:07 | 53.35542 | -11.61532 | 34141 ft | 459 kts | 263° |
| 2026-05-05 06:08 | 53.34585 | -11.72104 | 34145 ft | 459 kts | 263° |
| 2026-05-05 06:08 | 53.33619 | -11.82668 | 34144 ft | 459 kts | 263° |
| 2026-05-05 06:09 | 53.32643 | -11.93231 | 34142 ft | 459 kts | 263° |
| 2026-05-05 06:09 | 53.31659 | -12.03782 | 34154 ft | 459 kts | 263° |
| 2026-05-05 06:10 | 53.30665 | -12.14334 | 34153 ft | 459 kts | 263° |
| 2026-05-05 06:10 | 53.29661 | -12.24878 | 34152 ft | 459 kts | 262° |
| 2026-05-05 06:11 | 53.28649 | -12.35415 | 34155 ft | 459 kts | 262° |
| 2026-05-05 06:11 | 53.27628 | -12.45942 | 34155 ft | 459 kts | 262° |
| 2026-05-05 06:12 | 53.26597 | -12.56464 | 34159 ft | 459 kts | 262° |
| 2026-05-05 06:12 | 53.25566 | -12.66899 | 34163 ft | 458 kts | 262° |
| 2026-05-05 06:13 | 53.24518 | -12.77402 | 34161 ft | 458 kts | 262° |
| 2026-05-05 06:13 | 53.23462 | -12.87883 | 34165 ft | 458 kts | 262° |
| 2026-05-05 06:14 | 53.22397 | -12.98365 | 34166 ft | 458 kts | 261° |
| 2026-05-05 06:14 | 53.21323 | -13.08831 | 34171 ft | 458 kts | 261° |
| 2026-05-05 06:15 | 53.20241 | -13.19287 | 34174 ft | 457 kts | 261° |
| 2026-05-05 06:15 | 53.19150 | -13.29732 | 34173 ft | 457 kts | 261° |
| 2026-05-05 06:16 | 53.18051 | -13.40170 | 34165 ft | 457 kts | 261° |
| 2026-05-05 06:16 | 53.16942 | -13.50599 | 34183 ft | 457 kts | 261° |
| 2026-05-05 06:17 | 53.15826 | -13.61013 | 34197 ft | 457 kts | 261° |
| 2026-05-05 06:17 | 53.14700 | -13.71431 | 34189 ft | 457 kts | 261° |
| 2026-05-05 06:18 | 53.13564 | -13.81842 | 34180 ft | 457 kts | 261° |
| 2026-05-05 06:18 | 53.12419 | -13.92248 | 34187 ft | 457 kts | 262° |
| 2026-05-05 06:19 | 53.11266 | -14.02639 | 34198 ft | 456 kts | 262° |
| 2026-05-05 06:19 | 53.10114 | -14.12946 | 34198 ft | 456 kts | 261° |
| 2026-05-05 06:20 | 53.08944 | -14.23319 | 34194 ft | 456 kts | 261° |
| 2026-05-05 06:20 | 53.07766 | -14.33686 | 34204 ft | 456 kts | 261° |
| 2026-05-05 06:21 | 53.06579 | -14.44035 | 34187 ft | 455 kts | 261° |
| 2026-05-05 06:21 | 53.05377 | -14.54442 | 34204 ft | 455 kts | 261° |
| 2026-05-05 06:22 | 53.04184 | -14.64687 | 34211 ft | 455 kts | 261° |
| 2026-05-05 06:22 | 53.02974 | -14.74992 | 34210 ft | 454 kts | 261° |
| 2026-05-05 06:23 | 53.01758 | -14.85287 | 34210 ft | 454 kts | 261° |
| 2026-05-05 06:23 | 53.00699 | -14.95605 | 34201 ft | 451 kts | 269° |
| 2026-05-05 06:24 | 53.01324 | -15.05867 | 34216 ft | 447 kts | 285° |
| 2026-05-05 06:24 | 53.03392 | -15.15585 | 34221 ft | 446 kts | 291° |
| 2026-05-05 06:25 | 53.05616 | -15.25235 | 34215 ft | 448 kts | 291° |
| 2026-05-05 06:25 | 53.07810 | -15.34927 | 34219 ft | 448 kts | 291° |
| 2026-05-05 06:26 | 53.09977 | -15.44654 | 34219 ft | 449 kts | 291° |
| 2026-05-05 06:26 | 53.12129 | -15.54401 | 34211 ft | 449 kts | 290° |
| 2026-05-05 06:27 | 53.15339 | -15.69043 | 34218 ft | 449 kts | 290° |
| 2026-05-05 06:28 | 53.17469 | -15.78809 | 34218 ft | 448 kts | 290° |
| 2026-05-05 06:28 | 53.19593 | -15.88590 | 34227 ft | 448 kts | 290° |
| 2026-05-05 06:29 | 53.21707 | -15.98371 | 34229 ft | 448 kts | 290° |
| 2026-05-05 06:29 | 53.23795 | -16.08085 | 34227 ft | 448 kts | 290° |
| 2026-05-05 06:30 | 53.25890 | -16.17872 | 34225 ft | 447 kts | 290° |
| 2026-05-05 06:30 | 53.27975 | -16.27661 | 34222 ft | 447 kts | 290° |
| 2026-05-05 06:31 | 53.30049 | -16.37443 | 34226 ft | 447 kts | 289° |
| 2026-05-05 06:31 | 53.32115 | -16.47240 | 34226 ft | 447 kts | 289° |
| 2026-05-05 06:32 | 53.34174 | -16.57045 | 34230 ft | 447 kts | 289° |
| 2026-05-05 06:32 | 53.36227 | -16.66874 | 34236 ft | 447 kts | 289° |
| 2026-05-05 06:33 | 53.38270 | -16.76699 | 34233 ft | 447 kts | 289° |
| 2026-05-05 06:33 | 53.40306 | -16.86543 | 34231 ft | 447 kts | 289° |
| 2026-05-05 06:34 | 53.42331 | -16.96384 | 34228 ft | 447 kts | 289° |
| 2026-05-05 06:34 | 53.44350 | -17.06238 | 34233 ft | 447 kts | 289° |
| 2026-05-05 06:35 | 53.46359 | -17.16098 | 34239 ft | 447 kts | 289° |
| 2026-05-05 06:35 | 53.48361 | -17.25971 | 34238 ft | 447 kts | 288° |
| 2026-05-05 06:36 | 53.50356 | -17.35855 | 34243 ft | 447 kts | 288° |
| 2026-05-05 06:36 | 53.52330 | -17.45688 | 34239 ft | 447 kts | 288° |
| 2026-05-05 06:37 | 53.54306 | -17.55579 | 34237 ft | 446 kts | 288° |
| 2026-05-05 06:37 | 53.56273 | -17.65475 | 34236 ft | 446 kts | 288° |
| 2026-05-05 06:38 | 53.58231 | -17.75382 | 34247 ft | 446 kts | 288° |
| 2026-05-05 06:38 | 53.60182 | -17.85296 | 34243 ft | 446 kts | 288° |
| 2026-05-05 06:39 | 53.62125 | -17.95223 | 34236 ft | 446 kts | 288° |
| 2026-05-05 06:39 | 53.64055 | -18.05137 | 34268 ft | 446 kts | 287° |
| 2026-05-05 06:40 | 53.65981 | -18.15080 | 34262 ft | 446 kts | 287° |
| 2026-05-05 06:40 | 53.67899 | -18.25032 | 34260 ft | 446 kts | 287° |
| 2026-05-05 06:41 | 53.69807 | -18.34983 | 34251 ft | 446 kts | 287° |
| 2026-05-05 06:41 | 53.71706 | -18.44945 | 34243 ft | 446 kts | 287° |
| 2026-05-05 06:42 | 53.73597 | -18.54914 | 34240 ft | 446 kts | 287° |
| 2026-05-05 06:42 | 53.75164 | -18.63210 | 34257 ft | 446 kts | 287° |
| 2026-05-05 06:43 | 53.77342 | -18.74811 | 34265 ft | 445 kts | 287° |
| 2026-05-05 06:43 | 53.79207 | -18.84798 | 34251 ft | 445 kts | 286° |
| 2026-05-05 06:44 | 53.80763 | -18.93175 | 34256 ft | 445 kts | 286° |
| 2026-05-05 06:44 | 53.82613 | -19.03180 | 34256 ft | 445 kts | 286° |
| 2026-05-05 06:45 | 53.84441 | -19.13122 | 34260 ft | 445 kts | 286° |
| 2026-05-05 06:45 | 53.86284 | -19.23201 | 34261 ft | 445 kts | 286° |
| 2026-05-05 06:46 | 53.88096 | -19.33165 | 34261 ft | 445 kts | 286° |
| 2026-05-05 06:46 | 53.89911 | -19.43194 | 34262 ft | 445 kts | 285° |
| 2026-05-05 06:47 | 53.91715 | -19.53224 | 34262 ft | 445 kts | 285° |
| 2026-05-05 06:47 | 53.93515 | -19.63281 | 34269 ft | 446 kts | 285° |
| 2026-05-05 06:48 | 53.95308 | -19.73362 | 34263 ft | 446 kts | 285° |
| 2026-05-05 06:48 | 53.97094 | -19.83450 | 34268 ft | 446 kts | 285° |
| 2026-05-05 06:49 | 53.98874 | -19.93559 | 34266 ft | 446 kts | 285° |
| 2026-05-05 06:49 | 54.00202 | -20.03832 | 34275 ft | 445 kts | 275° |
| 2026-05-05 06:50 | 54.00625 | -20.14290 | 34278 ft | 444 kts | 273° |
| 2026-05-05 06:50 | 54.01012 | -20.24790 | 34271 ft | 445 kts | 273° |
| 2026-05-05 06:51 | 54.01409 | -20.35277 | 34275 ft | 444 kts | 273° |
| 2026-05-05 06:51 | 54.01808 | -20.45776 | 34274 ft | 445 kts | 273° |
| 2026-05-05 06:52 | 54.02200 | -20.56267 | 34281 ft | 445 kts | 273° |
| 2026-05-05 06:52 | 54.02582 | -20.66725 | 34282 ft | 447 kts | 273° |
| 2026-05-05 06:53 | 54.02958 | -20.77279 | 34278 ft | 448 kts | 273° |
| 2026-05-05 06:53 | 54.03326 | -20.87861 | 34278 ft | 448 kts | 273° |
| 2026-05-05 06:54 | 54.03684 | -20.98451 | 34283 ft | 449 kts | 273° |
| 2026-05-05 06:54 | 54.04032 | -21.09045 | 34278 ft | 449 kts | 273° |
| 2026-05-05 06:55 | 54.04372 | -21.19653 | 34283 ft | 449 kts | 273° |
| 2026-05-05 06:55 | 54.04702 | -21.30215 | 34287 ft | 449 kts | 272° |
| 2026-05-05 06:56 | 54.05023 | -21.40842 | 34288 ft | 449 kts | 272° |
| 2026-05-05 06:56 | 54.05336 | -21.51464 | 34286 ft | 449 kts | 272° |
| 2026-05-05 06:57 | 54.05638 | -21.62077 | 34289 ft | 450 kts | 272° |
| 2026-05-05 06:57 | 54.05932 | -21.72718 | 34295 ft | 450 kts | 272° |
| 2026-05-05 06:58 | 54.06217 | -21.83372 | 34292 ft | 451 kts | 272° |
| 2026-05-05 06:58 | 54.06493 | -21.94086 | 34481 ft | 455 kts | 272° |
| 2026-05-05 06:58 | 54.06629 | -21.99470 | 34777 ft | 455 kts | 272° |
| 2026-05-05 06:59 | 54.06761 | -22.04833 | 35094 ft | 453 kts | 272° |
| 2026-05-05 06:59 | 54.06892 | -22.10199 | 35399 ft | 453 kts | 272° |
| 2026-05-05 06:59 | 54.07019 | -22.15548 | 35681 ft | 453 kts | 272° |
| 2026-05-05 06:59 | 54.07144 | -22.20902 | 35910 ft | 453 kts | 272° |
| 2026-05-05 07:00 | 54.07268 | -22.26268 | 36151 ft | 454 kts | 272° |
| 2026-05-05 07:00 | 54.07507 | -22.36983 | 36276 ft | 456 kts | 272° |
| 2026-05-05 07:01 | 54.07736 | -22.47733 | 36288 ft | 454 kts | 272° |
| 2026-05-05 07:01 | 54.07956 | -22.58451 | 36295 ft | 452 kts | 272° |
| 2026-05-05 07:02 | 54.08165 | -22.69144 | 36294 ft | 451 kts | 272° |
| 2026-05-05 07:02 | 54.08365 | -22.79820 | 36293 ft | 451 kts | 272° |
| 2026-05-05 07:03 | 54.08556 | -22.90518 | 36303 ft | 453 kts | 272° |
| 2026-05-05 07:03 | 54.08738 | -23.01255 | 36307 ft | 455 kts | 272° |
| 2026-05-05 07:04 | 54.08910 | -23.12000 | 36310 ft | 457 kts | 272° |
| 2026-05-05 07:04 | 54.09075 | -23.22854 | 36311 ft | 459 kts | 272° |
| 2026-05-05 07:05 | 54.09230 | -23.33756 | 36292 ft | 460 kts | 272° |
| 2026-05-05 07:05 | 54.09375 | -23.44670 | 36308 ft | 461 kts | 272° |
| 2026-05-05 07:06 | 54.09511 | -23.55600 | 36309 ft | 461 kts | 272° |
| 2026-05-05 07:06 | 54.09637 | -23.66536 | 36306 ft | 461 kts | 272° |
| 2026-05-05 07:07 | 54.09753 | -23.77453 | 36305 ft | 461 kts | 272° |
| 2026-05-05 07:07 | 54.09859 | -23.88358 | 36307 ft | 460 kts | 272° |
| 2026-05-05 07:08 | 54.09954 | -23.99173 | 36309 ft | 459 kts | 272° |
| 2026-05-05 07:08 | 54.10040 | -24.10047 | 36310 ft | 459 kts | 272° |
| 2026-05-05 07:09 | 54.10116 | -24.20906 | 36316 ft | 458 kts | 272° |
| 2026-05-05 07:09 | 54.10182 | -24.31780 | 36312 ft | 459 kts | 272° |
| 2026-05-05 07:10 | 54.10240 | -24.42671 | 36317 ft | 460 kts | 272° |
| 2026-05-05 07:10 | 54.10286 | -24.53573 | 36311 ft | 460 kts | 272° |
| 2026-05-05 07:11 | 54.10324 | -24.64487 | 36321 ft | 461 kts | 272° |
| 2026-05-05 07:11 | 54.10351 | -24.75423 | 36318 ft | 461 kts | 272° |
| 2026-05-05 07:12 | 54.10368 | -24.86361 | 36321 ft | 462 kts | 272° |
| 2026-05-05 07:12 | 54.10376 | -24.97306 | 36320 ft | 462 kts | 272° |
| 2026-05-05 07:13 | 54.10373 | -25.08188 | 36305 ft | 461 kts | 272° |
| 2026-05-05 07:13 | 54.10360 | -25.19094 | 36318 ft | 460 kts | 272° |
| 2026-05-05 07:14 | 54.10338 | -25.29979 | 36324 ft | 459 kts | 272° |
| 2026-05-05 07:14 | 54.10307 | -25.40850 | 36325 ft | 458 kts | 272° |
| 2026-05-05 07:15 | 54.10265 | -25.51698 | 36327 ft | 458 kts | 272° |
| 2026-05-05 07:15 | 54.10214 | -25.62557 | 36328 ft | 458 kts | 272° |
| 2026-05-05 07:16 | 54.10153 | -25.73402 | 36318 ft | 457 kts | 272° |
| 2026-05-05 07:16 | 54.10082 | -25.84244 | 36329 ft | 457 kts | 272° |
| 2026-05-05 07:17 | 54.10002 | -25.95007 | 36327 ft | 457 kts | 272° |
| 2026-05-05 07:17 | 54.09912 | -26.05853 | 36327 ft | 457 kts | 272° |
| 2026-05-05 07:18 | 54.09811 | -26.16770 | 36325 ft | 458 kts | 272° |
| 2026-05-05 07:18 | 54.09702 | -26.27541 | 36329 ft | 457 kts | 272° |
| 2026-05-05 07:19 | 54.09583 | -26.38375 | 36328 ft | 457 kts | 271° |
| 2026-05-05 07:19 | 54.09454 | -26.49203 | 36343 ft | 456 kts | 271° |
| 2026-05-05 07:20 | 54.09315 | -26.60012 | 36337 ft | 456 kts | 271° |
| 2026-05-05 07:20 | 54.09167 | -26.70798 | 36349 ft | 456 kts | 271° |
| 2026-05-05 07:21 | 54.09010 | -26.81538 | 36326 ft | 456 kts | 271° |
| 2026-05-05 07:21 | 54.08843 | -26.92335 | 36337 ft | 456 kts | 271° |
| 2026-05-05 07:22 | 54.08666 | -27.03129 | 36351 ft | 456 kts | 271° |
| 2026-05-05 07:22 | 54.08480 | -27.13927 | 36346 ft | 456 kts | 271° |
| 2026-05-05 07:23 | 54.08283 | -27.24722 | 36348 ft | 456 kts | 271° |
| 2026-05-05 07:23 | 54.08078 | -27.35449 | 36349 ft | 456 kts | 271° |
| 2026-05-05 07:24 | 54.07863 | -27.46252 | 36334 ft | 456 kts | 271° |
| 2026-05-05 07:24 | 54.07637 | -27.57056 | 36343 ft | 456 kts | 271° |
| 2026-05-05 07:25 | 54.07402 | -27.67856 | 36351 ft | 456 kts | 271° |
| 2026-05-05 07:25 | 54.07157 | -27.78657 | 36349 ft | 456 kts | 271° |
| 2026-05-05 07:26 | 54.06902 | -27.89458 | 36356 ft | 457 kts | 270° |
| 2026-05-05 07:26 | 54.06638 | -28.00264 | 36353 ft | 457 kts | 271° |
| 2026-05-05 07:27 | 54.06365 | -28.11017 | 36362 ft | 458 kts | 270° |
| 2026-05-05 07:27 | 54.06079 | -28.21906 | 36359 ft | 458 kts | 270° |
| 2026-05-05 07:28 | 54.05785 | -28.32758 | 36357 ft | 459 kts | 270° |
| 2026-05-05 07:28 | 54.05482 | -28.43537 | 36357 ft | 459 kts | 270° |
| 2026-05-05 07:29 | 54.05167 | -28.54401 | 36361 ft | 460 kts | 270° |
| 2026-05-05 07:29 | 54.04842 | -28.65260 | 36359 ft | 459 kts | 270° |
| 2026-05-05 07:30 | 54.04508 | -28.76112 | 36364 ft | 459 kts | 270° |
| 2026-05-05 07:30 | 54.03989 | -28.92379 | 36363 ft | 459 kts | 270° |
| 2026-05-05 07:31 | 54.03631 | -29.03223 | 36360 ft | 459 kts | 270° |
| 2026-05-05 07:31 | 54.03263 | -29.14067 | 36327 ft | 459 kts | 270° |
| 2026-05-05 07:32 | 54.02949 | -29.23072 | 36353 ft | 458 kts | 270° |
| 2026-05-05 07:32 | 54.02563 | -29.33910 | 36361 ft | 459 kts | 270° |
| 2026-05-05 07:33 | 54.02168 | -29.44750 | 36363 ft | 460 kts | 270° |
| 2026-05-05 07:33 | 54.01761 | -29.55627 | 36362 ft | 461 kts | 270° |
| 2026-05-05 07:34 | 54.01344 | -29.66520 | 36362 ft | 462 kts | 270° |
| 2026-05-05 07:34 | 54.00916 | -29.77423 | 36359 ft | 461 kts | 270° |
| 2026-05-05 07:35 | 54.00481 | -29.88309 | 36360 ft | 461 kts | 270° |
| 2026-05-05 07:35 | 54.00062 | -29.99180 | 36361 ft | 459 kts | 272° |
| 2026-05-05 07:36 | 54.00339 | -30.09949 | 36373 ft | 455 kts | 278° |
| 2026-05-05 07:36 | 54.00809 | -30.20683 | 36359 ft | 455 kts | 278° |
| 2026-05-05 07:37 | 54.01256 | -30.31420 | 36360 ft | 455 kts | 277° |
| 2026-05-05 07:37 | 54.01675 | -30.42147 | 36352 ft | 454 kts | 278° |
| 2026-05-05 07:38 | 54.02078 | -30.52844 | 36362 ft | 453 kts | 278° |
| 2026-05-05 07:38 | 54.02470 | -30.63538 | 36364 ft | 453 kts | 278° |
| 2026-05-05 07:39 | 54.02853 | -30.74231 | 36364 ft | 453 kts | 278° |
| 2026-05-05 07:39 | 54.03226 | -30.84918 | 36364 ft | 453 kts | 277° |
| 2026-05-05 07:40 | 54.03589 | -30.95557 | 36362 ft | 453 kts | 277° |
| 2026-05-05 07:40 | 54.03942 | -31.06237 | 36345 ft | 452 kts | 277° |
| 2026-05-05 07:41 | 54.04285 | -31.16865 | 36361 ft | 450 kts | 277° |
| 2026-05-05 07:41 | 54.04619 | -31.27503 | 36348 ft | 450 kts | 277° |
| 2026-05-05 07:42 | 54.04943 | -31.38120 | 36352 ft | 449 kts | 277° |
| 2026-05-05 07:42 | 54.05257 | -31.48727 | 36350 ft | 449 kts | 277° |
| 2026-05-05 07:43 | 54.05563 | -31.59367 | 36351 ft | 449 kts | 277° |
| 2026-05-05 07:43 | 54.05859 | -31.69977 | 36345 ft | 448 kts | 277° |
| 2026-05-05 07:44 | 54.06144 | -31.80560 | 36342 ft | 447 kts | 277° |
| 2026-05-05 07:44 | 54.06418 | -31.91068 | 36347 ft | 446 kts | 277° |
| 2026-05-05 07:45 | 54.06684 | -32.01620 | 36347 ft | 446 kts | 277° |
| 2026-05-05 07:45 | 54.06940 | -32.12158 | 36348 ft | 445 kts | 277° |
| 2026-05-05 07:46 | 54.07188 | -32.22700 | 36342 ft | 446 kts | 277° |
| 2026-05-05 07:46 | 54.07426 | -32.33230 | 36336 ft | 444 kts | 276° |
| 2026-05-05 07:47 | 54.07653 | -32.43729 | 36337 ft | 443 kts | 276° |
| 2026-05-05 07:47 | 54.07871 | -32.54204 | 36334 ft | 442 kts | 276° |
| 2026-05-05 07:48 | 54.08078 | -32.64593 | 36333 ft | 442 kts | 276° |
| 2026-05-05 07:48 | 54.08278 | -32.75050 | 36334 ft | 441 kts | 276° |
| 2026-05-05 07:49 | 54.08469 | -32.85496 | 36332 ft | 441 kts | 276° |
| 2026-05-05 07:49 | 54.08651 | -32.95939 | 36335 ft | 441 kts | 275° |
| 2026-05-05 07:50 | 54.08823 | -33.06376 | 36329 ft | 441 kts | 275° |
| 2026-05-05 07:50 | 54.08985 | -33.16805 | 36324 ft | 440 kts | 275° |
| 2026-05-05 07:51 | 54.09139 | -33.27231 | 36328 ft | 440 kts | 275° |
| 2026-05-05 07:51 | 54.09284 | -33.37659 | 36327 ft | 441 kts | 275° |
| 2026-05-05 07:52 | 54.09421 | -33.48108 | 36319 ft | 441 kts | 275° |
| 2026-05-05 07:52 | 54.09548 | -33.58544 | 36292 ft | 441 kts | 274° |
| 2026-05-05 07:53 | 54.09666 | -33.68976 | 36311 ft | 440 kts | 274° |
| 2026-05-05 07:53 | 54.09774 | -33.79357 | 36321 ft | 440 kts | 274° |
| 2026-05-05 07:54 | 54.09874 | -33.89807 | 36319 ft | 441 kts | 274° |
| 2026-05-05 07:54 | 54.09965 | -34.00256 | 36320 ft | 441 kts | 274° |
| 2026-05-05 07:55 | 54.10047 | -34.10708 | 36312 ft | 442 kts | 273° |
| 2026-05-05 07:55 | 54.10120 | -34.21166 | 36313 ft | 443 kts | 273° |
| 2026-05-05 07:56 | 54.10184 | -34.31638 | 36308 ft | 443 kts | 273° |
| 2026-05-05 07:56 | 54.10239 | -34.42153 | 36308 ft | 444 kts | 273° |
| 2026-05-05 07:57 | 54.10285 | -34.52673 | 36305 ft | 444 kts | 273° |
| 2026-05-05 07:57 | 54.10321 | -34.63203 | 36298 ft | 444 kts | 273° |
| 2026-05-05 07:58 | 54.10349 | -34.73679 | 36300 ft | 444 kts | 273° |
| 2026-05-05 07:58 | 54.10367 | -34.84203 | 36266 ft | 444 kts | 272° |
| 2026-05-05 07:59 | 54.10377 | -34.94717 | 36288 ft | 444 kts | 272° |
| 2026-05-05 07:59 | 54.10377 | -35.05285 | 36295 ft | 446 kts | 271° |
| 2026-05-05 08:00 | 54.10368 | -35.15905 | 36293 ft | 449 kts | 271° |
| 2026-05-05 08:00 | 54.10349 | -35.26568 | 36292 ft | 451 kts | 271° |
| 2026-05-05 08:01 | 54.10320 | -35.37174 | 36282 ft | 452 kts | 271° |
| 2026-05-05 08:01 | 54.10283 | -35.47891 | 36266 ft | 452 kts | 271° |
| 2026-05-05 08:02 | 54.10236 | -35.58603 | 36274 ft | 453 kts | 270° |
| 2026-05-05 08:02 | 54.10178 | -35.69329 | 36272 ft | 453 kts | 270° |
| 2026-05-05 08:03 | 54.10111 | -35.80079 | 36271 ft | 453 kts | 270° |
| 2026-05-05 08:03 | 54.10035 | -35.90825 | 36267 ft | 454 kts | 270° |
| 2026-05-05 08:04 | 54.09950 | -36.01575 | 36261 ft | 454 kts | 270° |
| 2026-05-05 08:04 | 54.09854 | -36.12325 | 36254 ft | 454 kts | 269° |
| 2026-05-05 08:05 | 54.09751 | -36.23046 | 36252 ft | 452 kts | 268° |
| 2026-05-05 08:05 | 54.09636 | -36.33768 | 36247 ft | 453 kts | 268° |
| 2026-05-05 08:06 | 54.09512 | -36.44502 | 36242 ft | 453 kts | 268° |
| 2026-05-05 08:06 | 54.09378 | -36.55235 | 36241 ft | 454 kts | 268° |
| 2026-05-05 08:07 | 54.09235 | -36.65998 | 36228 ft | 454 kts | 268° |
| 2026-05-05 08:07 | 54.09083 | -36.76696 | 36234 ft | 455 kts | 266° |
| 2026-05-05 08:08 | 54.08922 | -36.87504 | 36229 ft | 459 kts | 265° |
| 2026-05-05 08:08 | 54.08743 | -36.98460 | 36216 ft | 465 kts | 265° |
| 2026-05-05 08:09 | 54.08557 | -37.09502 | 36215 ft | 467 kts | 265° |
| 2026-05-05 08:09 | 54.08360 | -37.20580 | 36209 ft | 468 kts | 265° |
| 2026-05-05 08:10 | 54.08154 | -37.31623 | 36201 ft | 466 kts | 264° |
| 2026-05-05 08:10 | 54.07936 | -37.42633 | 36198 ft | 465 kts | 264° |
| 2026-05-05 08:11 | 54.07709 | -37.53653 | 36189 ft | 466 kts | 265° |
| 2026-05-05 08:11 | 54.07471 | -37.64716 | 36189 ft | 469 kts | 264° |
| 2026-05-05 08:12 | 54.07221 | -37.75843 | 36190 ft | 472 kts | 265° |
| 2026-05-05 08:12 | 54.06961 | -37.87054 | 36177 ft | 475 kts | 264° |
| 2026-05-05 08:13 | 54.06684 | -37.98356 | 36166 ft | 477 kts | 264° |
| 2026-05-05 08:13 | 54.06400 | -38.09615 | 36158 ft | 479 kts | 263° |
| 2026-05-05 08:14 | 54.06104 | -38.20954 | 36143 ft | 480 kts | 263° |
| 2026-05-05 08:14 | 54.05797 | -38.32311 | 36153 ft | 480 kts | 264° |
| 2026-05-05 08:15 | 54.05479 | -38.43637 | 36117 ft | 479 kts | 263° |
| 2026-05-05 08:15 | 54.05151 | -38.54965 | 36121 ft | 478 kts | 263° |
| 2026-05-05 08:16 | 54.04813 | -38.66263 | 36131 ft | 478 kts | 263° |
| 2026-05-05 08:16 | 54.04463 | -38.77582 | 36112 ft | 479 kts | 262° |
| 2026-05-05 08:17 | 54.04102 | -38.88912 | 36109 ft | 480 kts | 262° |
| 2026-05-05 08:17 | 54.03729 | -39.00284 | 36096 ft | 481 kts | 262° |
| 2026-05-05 08:18 | 54.03348 | -39.11567 | 36093 ft | 481 kts | 262° |
| 2026-05-05 08:18 | 54.02954 | -39.22940 | 36081 ft | 482 kts | 262° |
| 2026-05-05 08:19 | 54.02549 | -39.34319 | 36115 ft | 482 kts | 261° |
| 2026-05-05 08:19 | 54.02203 | -39.43797 | 36086 ft | 484 kts | 261° |
| 2026-05-05 08:20 | 54.01775 | -39.55234 | 36083 ft | 486 kts | 261° |
| 2026-05-05 08:20 | 54.01334 | -39.66733 | 36065 ft | 488 kts | 261° |
| 2026-05-05 08:21 | 54.00882 | -39.78255 | 36045 ft | 489 kts | 261° |
| 2026-05-05 08:21 | 54.00419 | -39.89814 | 36045 ft | 490 kts | 261° |
| 2026-05-05 08:22 | 53.99941 | -40.01382 | 36053 ft | 491 kts | 260° |
| 2026-05-05 08:22 | 53.99317 | -40.12941 | 36031 ft | 491 kts | 258° |
| 2026-05-05 08:23 | 53.98612 | -40.24486 | 36026 ft | 491 kts | 258° |
| 2026-05-05 08:23 | 53.97907 | -40.36021 | 36020 ft | 491 kts | 258° |
| 2026-05-05 08:24 | 53.97212 | -40.47489 | 36041 ft | 491 kts | 258° |
| 2026-05-05 08:24 | 53.96508 | -40.59032 | 36019 ft | 491 kts | 258° |
| 2026-05-05 08:25 | 53.95792 | -40.70600 | 36010 ft | 492 kts | 258° |
| 2026-05-05 08:25 | 53.95066 | -40.82133 | 36001 ft | 492 kts | 258° |
| 2026-05-05 08:26 | 53.94327 | -40.93674 | 36000 ft | 492 kts | 258° |
| 2026-05-05 08:26 | 53.93578 | -41.05201 | 35992 ft | 492 kts | 258° |
| 2026-05-05 08:27 | 53.92817 | -41.16733 | 35994 ft | 492 kts | 258° |
| 2026-05-05 08:27 | 53.92042 | -41.28294 | 35993 ft | 493 kts | 257° |
| 2026-05-05 08:28 | 53.91256 | -41.39862 | 35988 ft | 494 kts | 257° |
| 2026-05-05 08:28 | 53.90458 | -41.51442 | 35976 ft | 495 kts | 257° |
| 2026-05-05 08:29 | 53.89648 | -41.63029 | 35974 ft | 495 kts | 257° |
| 2026-05-05 08:30 | 53.88416 | -41.80351 | 35969 ft | 496 kts | 257° |
| 2026-05-05 08:30 | 53.87575 | -41.91961 | 35975 ft | 497 kts | 257° |
| 2026-05-05 08:31 | 53.86722 | -42.03581 | 35976 ft | 497 kts | 256° |
| 2026-05-05 08:31 | 53.85858 | -42.15207 | 35970 ft | 497 kts | 256° |
| 2026-05-05 08:32 | 53.84983 | -42.26826 | 35962 ft | 497 kts | 256° |
| 2026-05-05 08:32 | 53.84096 | -42.38431 | 35957 ft | 496 kts | 256° |
| 2026-05-05 08:33 | 53.83200 | -42.50022 | 35995 ft | 496 kts | 256° |
| 2026-05-05 08:33 | 53.82293 | -42.61599 | 35962 ft | 495 kts | 256° |
| 2026-05-05 08:34 | 53.81378 | -42.73127 | 35947 ft | 493 kts | 256° |
| 2026-05-05 08:34 | 53.80463 | -42.84522 | 35947 ft | 492 kts | 256° |
| 2026-05-05 08:35 | 53.79531 | -42.95973 | 35954 ft | 491 kts | 256° |
| 2026-05-05 08:35 | 53.78590 | -43.07396 | 36009 ft | 490 kts | 256° |
| 2026-05-05 08:36 | 53.77637 | -43.18828 | 35953 ft | 490 kts | 256° |
| 2026-05-05 08:36 | 53.76678 | -43.30214 | 35951 ft | 488 kts | 256° |
| 2026-05-05 08:37 | 53.75709 | -43.41576 | 35940 ft | 488 kts | 256° |
| 2026-05-05 08:37 | 53.74730 | -43.52914 | 35937 ft | 488 kts | 255° |
| 2026-05-05 08:38 | 53.73740 | -43.64256 | 35943 ft | 488 kts | 255° |
| 2026-05-05 08:38 | 53.72739 | -43.75600 | 35934 ft | 489 kts | 256° |
| 2026-05-05 08:39 | 53.71734 | -43.86862 | 35926 ft | 488 kts | 256° |
| 2026-05-05 08:39 | 53.70714 | -43.98177 | 35924 ft | 487 kts | 256° |
| 2026-05-05 08:40 | 53.69686 | -44.09448 | 35911 ft | 486 kts | 256° |
| 2026-05-05 08:40 | 53.68649 | -44.20702 | 35916 ft | 485 kts | 256° |
| 2026-05-05 08:41 | 53.67601 | -44.31937 | 35956 ft | 485 kts | 256° |
| 2026-05-05 08:41 | 53.66540 | -44.43202 | 35911 ft | 486 kts | 256° |
| 2026-05-05 08:42 | 53.65470 | -44.54452 | 35898 ft | 485 kts | 256° |
| 2026-05-05 08:42 | 53.64392 | -44.65678 | 35890 ft | 485 kts | 256° |
| 2026-05-05 08:43 | 53.63304 | -44.76883 | 35897 ft | 485 kts | 256° |
| 2026-05-05 08:43 | 53.62203 | -44.88107 | 35886 ft | 485 kts | 255° |
| 2026-05-05 08:44 | 53.61101 | -44.99228 | 35887 ft | 485 kts | 256° |
| 2026-05-05 08:44 | 53.59982 | -45.10410 | 35885 ft | 484 kts | 256° |
| 2026-05-05 08:45 | 53.58854 | -45.21574 | 35872 ft | 484 kts | 255° |
| 2026-05-05 08:45 | 53.57717 | -45.32719 | 35864 ft | 483 kts | 255° |
| 2026-05-05 08:46 | 53.56571 | -45.43849 | 35857 ft | 483 kts | 255° |
| 2026-05-05 08:46 | 53.55410 | -45.55009 | 35871 ft | 484 kts | 255° |
| 2026-05-05 08:47 | 53.54242 | -45.66139 | 35850 ft | 483 kts | 255° |
| 2026-05-05 08:47 | 53.53065 | -45.77250 | 35828 ft | 482 kts | 255° |
| 2026-05-05 08:48 | 53.51879 | -45.88341 | 35839 ft | 482 kts | 255° |
| 2026-05-05 08:48 | 53.50685 | -45.99404 | 35830 ft | 481 kts | 255° |
| 2026-05-05 08:49 | 53.49481 | -46.10453 | 35835 ft | 481 kts | 255° |
| 2026-05-05 08:49 | 53.48264 | -46.21516 | 35827 ft | 481 kts | 255° |
| 2026-05-05 08:50 | 53.47048 | -46.32489 | 35807 ft | 481 kts | 255° |
| 2026-05-05 08:50 | 53.45814 | -46.43521 | 35807 ft | 480 kts | 255° |
| 2026-05-05 08:51 | 53.44575 | -46.54501 | 35806 ft | 480 kts | 255° |
| 2026-05-05 08:51 | 53.43324 | -46.65491 | 35790 ft | 480 kts | 254° |
| 2026-05-05 08:52 | 53.42062 | -46.76481 | 35797 ft | 480 kts | 254° |
| 2026-05-05 08:52 | 53.40792 | -46.87450 | 35786 ft | 480 kts | 254° |
| 2026-05-05 08:53 | 53.39510 | -46.98423 | 35784 ft | 480 kts | 254° |
| 2026-05-05 08:53 | 53.38215 | -47.09419 | 35769 ft | 481 kts | 254° |
| 2026-05-05 08:54 | 53.36916 | -47.20351 | 35768 ft | 482 kts | 254° |
| 2026-05-05 08:54 | 53.35599 | -47.31353 | 35785 ft | 482 kts | 254° |
| 2026-05-05 08:55 | 53.34270 | -47.42360 | 35752 ft | 482 kts | 254° |
| 2026-05-05 08:55 | 53.32932 | -47.53349 | 35746 ft | 482 kts | 254° |
| 2026-05-05 08:56 | 53.31587 | -47.64315 | 35736 ft | 481 kts | 254° |
| 2026-05-05 08:56 | 53.30232 | -47.75265 | 35730 ft | 480 kts | 253° |
| 2026-05-05 08:57 | 53.28871 | -47.86178 | 35720 ft | 479 kts | 253° |
| 2026-05-05 08:57 | 53.27507 | -47.97023 | 35728 ft | 480 kts | 253° |
| 2026-05-05 08:58 | 53.26124 | -48.07936 | 35716 ft | 480 kts | 253° |
| 2026-05-05 08:58 | 53.24731 | -48.18847 | 35698 ft | 480 kts | 253° |
| 2026-05-05 08:59 | 53.23330 | -48.29731 | 35691 ft | 480 kts | 253° |
| 2026-05-05 08:59 | 53.21919 | -48.40611 | 35691 ft | 480 kts | 253° |
| 2026-05-05 09:00 | 53.20497 | -48.51490 | 35691 ft | 480 kts | 253° |
| 2026-05-05 09:00 | 53.19076 | -48.62278 | 35681 ft | 479 kts | 253° |
| 2026-05-05 09:01 | 53.17639 | -48.73117 | 35670 ft | 478 kts | 253° |
| 2026-05-05 09:01 | 53.16194 | -48.83925 | 35675 ft | 478 kts | 253° |
| 2026-05-05 09:02 | 53.14738 | -48.94732 | 35666 ft | 478 kts | 253° |
| 2026-05-05 09:02 | 53.13272 | -49.05539 | 35648 ft | 478 kts | 253° |
| 2026-05-05 09:03 | 53.11796 | -49.16336 | 35644 ft | 479 kts | 253° |
| 2026-05-05 09:03 | 53.10310 | -49.27135 | 35634 ft | 478 kts | 253° |
| 2026-05-05 09:04 | 53.08816 | -49.37913 | 35634 ft | 478 kts | 253° |
| 2026-05-05 09:04 | 53.07312 | -49.48683 | 35623 ft | 478 kts | 253° |
| 2026-05-05 09:05 | 53.05798 | -49.59450 | 35617 ft | 477 kts | 253° |
| 2026-05-05 09:05 | 53.04532 | -49.68390 | 35626 ft | 477 kts | 253° |
| 2026-05-05 09:06 | 53.02751 | -49.80885 | 35613 ft | 478 kts | 252° |
| 2026-05-05 09:06 | 53.01210 | -49.91628 | 35589 ft | 478 kts | 252° |
| 2026-05-05 09:07 | 52.99857 | -50.00519 | 35591 ft | 476 kts | 249° |
| 2026-05-05 09:07 | 52.97511 | -50.10721 | 35590 ft | 473 kts | 244° |
| 2026-05-05 09:08 | 52.95022 | -50.20836 | 35600 ft | 473 kts | 244° |
| 2026-05-05 09:08 | 52.92546 | -50.30957 | 35577 ft | 474 kts | 244° |
| 2026-05-05 09:09 | 52.90075 | -50.41105 | 35571 ft | 475 kts | 245° |
| 2026-05-05 09:09 | 52.87602 | -50.51248 | 35563 ft | 475 kts | 244° |
| 2026-05-05 09:10 | 52.85122 | -50.61375 | 35564 ft | 475 kts | 244° |
| 2026-05-05 09:10 | 52.82630 | -50.71500 | 35579 ft | 475 kts | 244° |
| 2026-05-05 09:11 | 52.80140 | -50.81563 | 35548 ft | 476 kts | 244° |
| 2026-05-05 09:11 | 52.77626 | -50.91680 | 35541 ft | 476 kts | 244° |
| 2026-05-05 09:12 | 52.75109 | -51.01762 | 35539 ft | 475 kts | 244° |
| 2026-05-05 09:12 | 52.72579 | -51.11852 | 35536 ft | 475 kts | 244° |
| 2026-05-05 09:13 | 52.70043 | -51.21920 | 35539 ft | 475 kts | 244° |
| 2026-05-05 09:13 | 52.67498 | -51.31975 | 35522 ft | 475 kts | 245° |
| 2026-05-05 09:14 | 52.64945 | -51.42022 | 35519 ft | 475 kts | 244° |
| 2026-05-05 09:14 | 52.62408 | -51.51959 | 35513 ft | 474 kts | 244° |
| 2026-05-05 09:15 | 52.59845 | -51.61952 | 35511 ft | 474 kts | 244° |
| 2026-05-05 09:15 | 52.57273 | -51.71936 | 35506 ft | 474 kts | 245° |
| 2026-05-05 09:16 | 52.54694 | -51.81903 | 35493 ft | 473 kts | 244° |
| 2026-05-05 09:16 | 52.52112 | -51.91836 | 35494 ft | 473 kts | 244° |
| 2026-05-05 09:17 | 52.49524 | -52.01751 | 35498 ft | 472 kts | 245° |
| 2026-05-05 09:17 | 52.46927 | -52.11658 | 35482 ft | 473 kts | 243° |
| 2026-05-05 09:18 | 52.44322 | -52.21552 | 35482 ft | 473 kts | 243° |
| 2026-05-05 09:18 | 52.41707 | -52.31440 | 35480 ft | 473 kts | 244° |
| 2026-05-05 09:19 | 52.39079 | -52.41331 | 35477 ft | 473 kts | 243° |
| 2026-05-05 09:19 | 52.36449 | -52.51195 | 35474 ft | 473 kts | 243° |
| 2026-05-05 09:20 | 52.33823 | -52.60994 | 35473 ft | 473 kts | 244° |
| 2026-05-05 09:20 | 52.31181 | -52.70815 | 35473 ft | 472 kts | 244° |
| 2026-05-05 09:21 | 52.28537 | -52.80602 | 35467 ft | 471 kts | 243° |
| 2026-05-05 09:21 | 52.25887 | -52.90361 | 35477 ft | 469 kts | 244° |
| 2026-05-05 09:22 | 52.23234 | -53.00095 | 35465 ft | 470 kts | 244° |
| 2026-05-05 09:22 | 52.20562 | -53.09860 | 35475 ft | 472 kts | 245° |
| 2026-05-05 09:23 | 52.17877 | -53.19629 | 35469 ft | 472 kts | 243° |
| 2026-05-05 09:23 | 52.15188 | -53.29373 | 35463 ft | 471 kts | 243° |
| 2026-05-05 09:24 | 52.12495 | -53.39094 | 35455 ft | 470 kts | 243° |
| 2026-05-05 09:24 | 52.09802 | -53.48769 | 35444 ft | 469 kts | 243° |
| 2026-05-05 09:25 | 52.07101 | -53.58432 | 35455 ft | 469 kts | 243° |
| 2026-05-05 09:25 | 52.04414 | -53.68014 | 35452 ft | 468 kts | 243° |
| 2026-05-05 09:26 | 52.01704 | -53.77631 | 35450 ft | 468 kts | 244° |
| 2026-05-05 09:26 | 51.98991 | -53.87222 | 35421 ft | 467 kts | 244° |
| 2026-05-05 09:27 | 51.96265 | -53.96820 | 35419 ft | 468 kts | 244° |
| 2026-05-05 09:27 | 51.93531 | -54.06402 | 35435 ft | 468 kts | 244° |
| 2026-05-05 09:28 | 51.90795 | -54.15961 | 35436 ft | 467 kts | 244° |
| 2026-05-05 09:28 | 51.88057 | -54.25486 | 35425 ft | 466 kts | 243° |
| 2026-05-05 09:29 | 51.85321 | -54.34965 | 35429 ft | 465 kts | 244° |
| 2026-05-05 09:29 | 51.82579 | -54.44433 | 35429 ft | 465 kts | 244° |
| 2026-05-05 09:30 | 51.79809 | -54.53805 | 35434 ft | 464 kts | 240° |
| 2026-05-05 09:30 | 51.76502 | -54.62717 | 35434 ft | 462 kts | 237° |
| 2026-05-05 09:31 | 51.73116 | -54.71534 | 35427 ft | 461 kts | 237° |
| 2026-05-05 09:31 | 51.69748 | -54.80325 | 35427 ft | 461 kts | 237° |
| 2026-05-05 09:32 | 51.66375 | -54.89146 | 35432 ft | 462 kts | 237° |
| 2026-05-05 09:32 | 51.63006 | -54.97944 | 35431 ft | 462 kts | 237° |
| 2026-05-05 09:33 | 51.59632 | -55.06728 | 35430 ft | 461 kts | 237° |
| 2026-05-05 09:33 | 51.56260 | -55.15473 | 35431 ft | 460 kts | 237° |
| 2026-05-05 09:34 | 51.52897 | -55.24168 | 35417 ft | 462 kts | 237° |
| 2026-05-05 09:34 | 51.49474 | -55.32978 | 35412 ft | 469 kts | 238° |
| 2026-05-05 09:35 | 51.45998 | -55.41898 | 35408 ft | 473 kts | 237° |
| 2026-05-05 09:35 | 51.40803 | -55.55176 | 35391 ft | 464 kts | 237° |
| 2026-05-05 09:36 | 51.37371 | -55.63911 | 35388 ft | 463 kts | 237° |
| 2026-05-05 09:36 | 51.33910 | -55.72688 | 35382 ft | 471 kts | 238° |
| 2026-05-05 09:37 | 51.30379 | -55.81610 | 35394 ft | 478 kts | 237° |
| 2026-05-05 09:37 | 51.26826 | -55.90559 | 35382 ft | 474 kts | 237° |
| 2026-05-05 09:38 | 51.23317 | -55.99365 | 35384 ft | 468 kts | 237° |
| 2026-05-05 09:38 | 51.19847 | -56.08046 | 35388 ft | 466 kts | 238° |
| 2026-05-05 09:39 | 51.16351 | -56.16760 | 35388 ft | 466 kts | 238° |
| 2026-05-05 09:39 | 51.12851 | -56.25458 | 35372 ft | 467 kts | 238° |
| 2026-05-05 09:40 | 51.09335 | -56.34165 | 35374 ft | 468 kts | 238° |
| 2026-05-05 09:40 | 51.05811 | -56.42862 | 35375 ft | 469 kts | 238° |
| 2026-05-05 09:41 | 51.02269 | -56.51571 | 35388 ft | 466 kts | 238° |
| 2026-05-05 09:41 | 50.98780 | -56.60123 | 35375 ft | 458 kts | 238° |
| 2026-05-05 09:42 | 50.95315 | -56.68592 | 35385 ft | 459 kts | 238° |
| 2026-05-05 09:42 | 50.91835 | -56.77070 | 35381 ft | 460 kts | 238° |
| 2026-05-05 09:43 | 50.88359 | -56.85508 | 35390 ft | 461 kts | 237° |
| 2026-05-05 09:43 | 50.84862 | -56.93970 | 35380 ft | 456 kts | 237° |
| 2026-05-05 09:44 | 50.81417 | -57.02278 | 35393 ft | 452 kts | 237° |
| 2026-05-05 09:44 | 50.70727 | -57.27899 | 35425 ft | 455 kts | 237° |
| 2026-05-05 09:45 | 50.56627 | -57.61307 | 35476 ft | 464 kts | 237° |
| 2026-05-05 09:45 | 50.42258 | -57.94919 | 35499 ft | 460 kts | 237° |
| 2026-05-05 09:46 | 50.28043 | -58.27754 | 35540 ft | 452 kts | 237° |
| 2026-05-05 09:46 | 50.13630 | -58.60639 | 35568 ft | 466 kts | 237° |
| 2026-05-05 09:47 | 49.99025 | -58.93537 | 35545 ft | 455 kts | 237° |
| 2026-05-05 09:47 | 49.84677 | -59.25474 | 35598 ft | 452 kts | 237° |
| 2026-05-05 09:48 | 49.70019 | -59.57705 | 35651 ft | 468 kts | 237° |
| 2026-05-05 09:48 | 49.55170 | -59.89950 | 35543 ft | 449 kts | 237° |
| 2026-05-05 09:49 | 49.40472 | -60.21510 | 35676 ft | 460 kts | 237° |
| 2026-05-05 09:49 | 49.32854 | -60.37717 | 35643 ft | 476 kts | 237° |
| 2026-05-05 09:49 | 49.25011 | -60.54295 | 35660 ft | 484 kts | 237° |
| 2026-05-05 09:50 | 49.09381 | -60.87025 | 35583 ft | 470 kts | 237° |
| 2026-05-05 09:50 | 49.01714 | -61.02943 | 35714 ft | 463 kts | 237° |
| 2026-05-05 09:50 | 48.94018 | -61.18833 | 35790 ft | 471 kts | 236° |
| 2026-05-05 09:51 | 48.78107 | -61.51369 | 35708 ft | 482 kts | 236° |
| 2026-05-05 09:51 | 48.70164 | -61.67459 | 35708 ft | 471 kts | 236° |
| 2026-05-05 09:51 | 48.62374 | -61.83153 | 35709 ft | 463 kts | 237° |
| 2026-05-05 09:52 | 48.54615 | -61.98703 | 35865 ft | 466 kts | 236° |
| 2026-05-05 09:52 | 48.46705 | -62.14463 | 35771 ft | 478 kts | 236° |
| 2026-05-05 09:52 | 48.30626 | -62.46188 | 35617 ft | 470 kts | 237° |
| 2026-05-05 09:53 | 48.22771 | -62.61556 | 35775 ft | 459 kts | 237° |
| 2026-05-05 09:53 | 48.14957 | -62.76772 | 35806 ft | 464 kts | 237° |
| 2026-05-05 09:53 | 48.09604 | -62.87143 | 35922 ft | 467 kts | 237° |
| 2026-05-05 09:53 | 48.01554 | -63.02658 | 35772 ft | 472 kts | 237° |
| 2026-05-05 09:54 | 47.93546 | -63.17994 | 35644 ft | 464 kts | 237° |
| 2026-05-05 09:54 | 47.85677 | -63.32990 | 35757 ft | 455 kts | 237° |
| 2026-05-05 09:54 | 47.69972 | -63.62693 | 35906 ft | 469 kts | 236° |
| 2026-05-05 09:55 | 47.61786 | -63.78037 | 35759 ft | 474 kts | 236° |
| 2026-05-05 09:55 | 47.53658 | -63.93174 | 35630 ft | 465 kts | 237° |
| 2026-05-05 09:55 | 47.45717 | -64.07894 | 35723 ft | 452 kts | 237° |
| 2026-05-05 09:55 | 47.37842 | -64.22431 | 35932 ft | 456 kts | 237° |
| 2026-05-05 09:56 | 47.29815 | -64.37163 | 35872 ft | 467 kts | 237° |
| 2026-05-05 09:56 | 47.21671 | -64.52009 | 35876 ft | 463 kts | 237° |
| 2026-05-05 09:56 | 47.13617 | -64.66618 | 35746 ft | 455 kts | 237° |
| 2026-05-05 09:56 | 47.05672 | -64.80957 | 35798 ft | 447 kts | 237° |
| 2026-05-05 09:57 | 46.97793 | -64.95119 | 35958 ft | 452 kts | 237° |
| 2026-05-05 09:57 | 46.89725 | -65.09541 | 35823 ft | 466 kts | 237° |
| 2026-05-05 09:57 | 46.73341 | -65.38554 | 35749 ft | 456 kts | 236° |
| 2026-05-05 09:58 | 46.65327 | -65.52647 | 35874 ft | 448 kts | 236° |
| 2026-05-05 09:58 | 46.57303 | -65.66699 | 35872 ft | 456 kts | 236° |
| 2026-05-05 09:58 | 46.40764 | -65.95410 | 35814 ft | 470 kts | 236° |
| 2026-05-05 09:59 | 46.32393 | -66.09814 | 35641 ft | 461 kts | 236° |
| 2026-05-05 09:59 | 46.24273 | -66.23725 | 35664 ft | 450 kts | 236° |
| 2026-05-05 09:59 | 46.16226 | -66.37456 | 36065 ft | 452 kts | 235° |
| 2026-05-05 09:59 | 46.07971 | -66.51474 | 35980 ft | 467 kts | 235° |
| 2026-05-05 10:00 | 45.99428 | -66.65885 | 35798 ft | 474 kts | 235° |
| 2026-05-05 10:00 | 45.90934 | -66.80131 | 35772 ft | 464 kts | 235° |
| 2026-05-05 10:00 | 45.74431 | -67.07643 | 35927 ft | 457 kts | 235° |
| 2026-05-05 10:01 | 45.57485 | -67.35608 | 35751 ft | 473 kts | 234° |
| 2026-05-05 10:01 | 45.48948 | -67.49575 | 35717 ft | 462 kts | 234° |
| 2026-05-05 10:01 | 45.40605 | -67.63171 | 35819 ft | 449 kts | 234° |
| 2026-05-05 10:02 | 45.23709 | -67.90146 | 35985 ft | 467 kts | 233° |
| 2026-05-05 10:02 | 45.14930 | -68.03900 | 35858 ft | 470 kts | 233° |
| 2026-05-05 10:02 | 45.06238 | -68.17465 | 35842 ft | 461 kts | 233° |
| 2026-05-05 10:03 | 44.89154 | -68.43959 | 35839 ft | 456 kts | 233° |
| 2026-05-05 10:03 | 44.71822 | -68.70579 | 35873 ft | 471 kts | 232° |
| 2026-05-05 10:04 | 44.54306 | -68.97206 | 35771 ft | 454 kts | 232° |
| 2026-05-05 10:04 | 44.45784 | -69.10080 | 35920 ft | 450 kts | 232° |
| 2026-05-05 10:04 | 44.37189 | -69.23011 | 36033 ft | 458 kts | 232° |
| 2026-05-05 10:05 | 44.28430 | -69.36121 | 35885 ft | 470 kts | 232° |
| 2026-05-05 10:05 | 44.19501 | -69.49407 | 35856 ft | 465 kts | 232° |
| 2026-05-05 10:05 | 44.10734 | -69.62394 | 35841 ft | 454 kts | 232° |
| 2026-05-05 10:05 | 44.02141 | -69.75077 | 35919 ft | 448 kts | 232° |
| 2026-05-05 10:06 | 43.84816 | -70.00476 | 35901 ft | 465 kts | 231° |
| 2026-05-05 10:06 | 43.67043 | -70.26275 | 35839 ft | 459 kts | 231° |
| 2026-05-05 10:07 | 43.49546 | -70.51465 | 35806 ft | 455 kts | 230° |
| 2026-05-05 10:07 | 43.40139 | -70.62916 | 35769 ft | 479 kts | 205° |
| 2026-05-05 10:07 | 43.29774 | -70.67725 | 35906 ft | 485 kts | 204° |
| 2026-05-05 10:08 | 43.23398 | -70.70812 | 35895 ft | 487 kts | 205° |
| 2026-05-05 10:08 | 43.14371 | -70.75235 | 35852 ft | 486 kts | 205° |
| 2026-05-05 10:09 | 42.88995 | -70.87573 | 35871 ft | 482 kts | 204° |
| 2026-05-05 10:09 | 42.63766 | -70.99740 | 35768 ft | 482 kts | 204° |
| 2026-05-05 10:10 | 42.38565 | -71.11798 | 35846 ft | 479 kts | 204° |
| 2026-05-05 10:10 | 42.13428 | -71.23725 | 35946 ft | 479 kts | 203° |
| 2026-05-05 10:11 | 41.88184 | -71.35602 | 35926 ft | 482 kts | 203° |
| 2026-05-05 10:11 | 41.64829 | -71.51342 | 36066 ft | 468 kts | 224° |
| 2026-05-05 10:12 | 41.44814 | -71.73712 | 35947 ft | 474 kts | 223° |
| 2026-05-05 10:12 | 41.25836 | -71.98001 | 35886 ft | 467 kts | 243° |
| 2026-05-05 10:13 | 41.13450 | -72.28255 | 35923 ft | 464 kts | 243° |